createdAt,value
2023-01-07T00:01:53.715Z,9.20
2023-01-07T00:06:55.868Z,9.30
2023-01-07T00:11:57.997Z,9.30
2023-01-07T00:17:01.723Z,9.30
2023-01-07T00:22:05.066Z,9.30
2023-01-07T00:27:07.264Z,9.40
2023-01-07T00:32:10.880Z,9.50
2023-01-07T00:37:12.956Z,9.50
2023-01-07T00:42:15.058Z,9.60
2023-01-07T00:47:18.574Z,9.60
2023-01-07T00:52:20.692Z,9.70
2023-01-07T00:57:23.464Z,9.70
2023-01-07T01:02:26.986Z,9.70
2023-01-07T01:07:29.173Z,9.70
2023-01-07T01:12:31.351Z,9.80
2023-01-07T01:17:34.992Z,9.90
2023-01-07T01:22:37.620Z,10.00
2023-01-07T01:27:39.807Z,10.10
2023-01-07T01:32:43.361Z,10.30
2023-01-07T01:37:45.532Z,10.40
2023-01-07T01:42:47.640Z,10.60
2023-01-07T01:47:54.607Z,10.70
2023-01-07T01:53:01.365Z,10.90
2023-01-07T01:58:07.575Z,11.00
2023-01-07T02:03:15.986Z,11.10
2023-01-07T02:08:18.094Z,11.20
2023-01-07T02:13:37.841Z,11.40
2023-01-07T02:18:59.488Z,11.50
2023-01-07T02:24:44.740Z,11.60
2023-01-07T02:30:23.410Z,11.70
2023-01-07T02:35:36.513Z,11.80
2023-01-07T02:40:49.169Z,11.90
2023-01-07T02:45:58.973Z,12.10
2023-01-07T02:51:02.581Z,12.10
2023-01-07T02:56:19.390Z,12.20
2023-01-07T03:01:40.732Z,12.20
2023-01-07T03:07:05.502Z,12.30
2023-01-07T03:12:16.004Z,12.40
2023-01-07T03:17:22.740Z,12.40
2023-01-07T03:22:29.702Z,12.40
2023-01-07T03:27:35.557Z,12.50
2023-01-07T03:32:42.138Z,12.60
2023-01-07T03:37:47.399Z,12.60
2023-01-07T03:42:49.627Z,12.70
2023-01-07T03:47:54.205Z,12.70
2023-01-07T03:52:57.780Z,12.80
2023-01-07T03:58:00.074Z,12.80
2023-01-07T04:03:02.235Z,12.80
2023-01-07T04:08:06.056Z,12.90
2023-01-07T04:13:08.175Z,12.90
2023-01-07T04:18:10.251Z,12.90
2023-01-07T04:23:14.006Z,13.00
2023-01-07T04:28:16.455Z,13.00
2023-01-07T04:33:18.535Z,13.00
2023-01-07T04:38:22.072Z,13.00
2023-01-07T04:43:24.305Z,13.00
2023-01-07T04:48:26.429Z,13.00
2023-01-07T04:53:30.037Z,13.10
2023-01-07T04:58:32.373Z,13.10
2023-01-07T05:03:36.861Z,13.10
2023-01-07T05:08:40.419Z,13.10
2023-01-07T05:13:42.529Z,13.10
2023-01-07T05:18:44.955Z,13.10
2023-01-07T05:23:48.509Z,13.10
2023-01-07T05:28:50.679Z,13.10
2023-01-07T05:33:52.803Z,13.20
2023-01-07T05:38:56.374Z,13.20
2023-01-07T05:43:58.588Z,13.20
2023-01-07T05:49:00.811Z,13.20
2023-01-07T05:54:04.408Z,13.20
2023-01-07T05:59:06.538Z,13.20
2023-01-07T06:04:08.647Z,13.20
2023-01-07T06:09:12.782Z,13.20
2023-01-07T06:14:14.937Z,13.20
2023-01-07T06:19:17.135Z,13.20
2023-01-07T06:24:20.682Z,13.20
2023-01-07T06:29:22.809Z,13.10
2023-01-07T06:34:25.037Z,13.10
2023-01-07T06:39:28.619Z,13.10
2023-01-07T06:44:31.139Z,13.10
2023-01-07T06:49:33.208Z,13.10
2023-01-07T06:54:36.818Z,13.10
2023-01-07T06:59:38.985Z,13.10
2023-01-07T07:04:41.147Z,13.10
2023-01-07T07:09:45.481Z,13.10
2023-01-07T07:14:47.692Z,13.10
2023-01-07T07:19:49.838Z,13.10
2023-01-07T07:24:53.393Z,13.10
2023-01-07T07:29:55.531Z,13.10
2023-01-07T07:34:57.741Z,13.10
2023-01-07T07:40:01.236Z,13.10
2023-01-07T07:45:04.162Z,13.10
2023-01-07T07:50:06.581Z,13.10
2023-01-07T07:55:20.562Z,13.10
2023-01-07T08:00:31.388Z,13.10
2023-01-07T08:05:33.482Z,13.10
2023-01-07T08:10:37.038Z,13.10
2023-01-07T08:15:39.155Z,13.10
2023-01-07T08:20:41.304Z,13.10
2023-01-07T08:25:45.084Z,13.10
2023-01-07T08:30:47.227Z,13.00
2023-01-07T08:35:49.367Z,13.10
2023-01-07T08:40:52.899Z,13.10
2023-01-07T08:45:55.113Z,13.10
2023-01-07T08:50:57.211Z,13.10
2023-01-07T08:56:00.851Z,13.20
2023-01-07T09:01:04.585Z,13.20
2023-01-07T09:06:07.527Z,13.20
2023-01-07T09:11:11.310Z,13.20
2023-01-07T09:16:13.554Z,13.20
2023-01-07T09:21:15.761Z,13.20
2023-01-07T09:26:19.363Z,13.20
2023-01-07T09:31:21.574Z,13.30
2023-01-07T09:36:23.686Z,13.30
2023-01-07T09:41:33.871Z,13.30
2023-01-07T09:46:37.098Z,13.30
2023-01-07T09:51:42.145Z,13.30
2023-01-07T09:56:47.084Z,13.30
2023-01-07T10:01:54.468Z,13.30
2023-01-07T10:07:05.203Z,13.30
2023-01-07T10:12:16.990Z,13.40
2023-01-07T10:17:34.913Z,13.40
2023-01-07T10:22:40.019Z,13.50
2023-01-07T10:27:45.858Z,13.70
2023-01-07T10:32:52.851Z,13.80
2023-01-07T10:37:58.960Z,13.80
2023-01-07T10:43:11.379Z,13.80
2023-01-07T10:48:42.740Z,13.80
2023-01-07T10:53:56.923Z,13.90
2023-01-07T10:59:01.250Z,14.10
2023-01-07T11:04:04.092Z,14.20
2023-01-07T11:09:11.523Z,14.30
2023-01-07T11:14:21.781Z,14.40
2023-01-07T11:19:43.238Z,14.40
2023-01-07T11:24:45.372Z,14.40
2023-01-07T11:29:58.306Z,14.40
2023-01-07T11:35:02.601Z,14.30
2023-01-07T11:40:19.474Z,14.30
2023-01-07T11:45:25.332Z,14.20
2023-01-07T11:50:33.814Z,14.10
2023-01-07T11:55:35.968Z,14.00
2023-01-07T12:00:39.577Z,14.00
2023-01-07T12:05:44.040Z,13.90
2023-01-07T12:10:46.544Z,13.80
2023-01-07T12:15:54.020Z,13.80
2023-01-07T12:21:25.690Z,13.80
2023-01-07T12:26:36.067Z,13.80
2023-01-07T12:31:54.105Z,13.70
2023-01-07T12:37:01.077Z,13.70
2023-01-07T12:42:09.627Z,13.70
2023-01-07T12:47:32.687Z,13.70
2023-01-07T12:52:44.277Z,13.70
2023-01-07T12:57:59.400Z,13.70
2023-01-07T13:03:14.799Z,13.70
2023-01-07T13:08:28.448Z,13.70
2023-01-07T13:13:34.948Z,13.70
2023-01-07T13:18:40.347Z,13.70
2023-01-07T13:24:07.680Z,13.60
2023-01-07T13:29:25.681Z,13.60
2023-01-07T13:34:39.632Z,13.60
2023-01-07T13:39:58.450Z,13.60
2023-01-07T13:45:10.671Z,13.60
2023-01-07T13:50:27.380Z,13.60
2023-01-07T13:55:38.897Z,13.60
2023-01-07T14:00:45.077Z,13.70
2023-01-07T14:05:48.625Z,13.70
2023-01-07T14:10:53.368Z,13.80
2023-01-07T14:16:05.777Z,13.70
2023-01-07T14:21:33.052Z,13.70
2023-01-07T14:26:40.683Z,13.70
2023-01-07T14:31:43.028Z,13.60
2023-01-07T14:37:15.322Z,13.60
2023-01-07T14:42:47.674Z,13.50
2023-01-07T14:47:53.958Z,13.40
2023-01-07T14:53:33.796Z,13.30
2023-01-07T14:59:07.481Z,13.30
2023-01-07T15:04:37.025Z,13.20
2023-01-07T15:09:44.853Z,13.10
2023-01-07T15:14:49.141Z,13.00
2023-01-07T15:19:52.864Z,13.00
2023-01-07T15:25:04.543Z,13.00
2023-01-07T15:30:16.524Z,12.90
2023-01-07T15:35:24.182Z,12.80
2023-01-07T15:40:27.817Z,12.70
2023-01-07T15:45:29.971Z,12.70
2023-01-07T15:50:33.519Z,12.60
2023-01-07T15:55:39.385Z,12.60
2023-01-07T16:00:41.883Z,12.50
2023-01-07T16:05:44.205Z,12.40
2023-01-07T16:11:02.133Z,12.40
2023-01-07T16:16:04.924Z,12.30
2023-01-07T16:21:12.527Z,12.30
2023-01-07T16:26:19.385Z,12.20
2023-01-07T16:31:24.403Z,12.20
2023-01-07T16:36:29.804Z,12.20
2023-01-07T16:41:34.257Z,12.20
2023-01-07T16:46:41.287Z,12.10
2023-01-07T16:51:45.477Z,12.10
2023-01-07T16:56:50.460Z,12.10
2023-01-07T17:01:52.781Z,12.10
2023-01-07T17:06:55.175Z,12.10
2023-01-07T17:11:58.739Z,12.10
2023-01-07T17:17:02.672Z,12.10
2023-01-07T17:22:27.142Z,12.10
2023-01-07T17:27:32.089Z,12.10
2023-01-07T17:32:36.608Z,12.10
2023-01-07T17:37:38.713Z,12.10
2023-01-07T17:42:43.170Z,12.10
2023-01-07T17:47:45.438Z,12.10
2023-01-07T17:52:50.239Z,12.00
2023-01-07T17:57:53.881Z,12.10
2023-01-07T18:02:58.229Z,12.00
2023-01-07T18:08:00.449Z,12.10
2023-01-07T18:13:04.007Z,12.10
2023-01-07T18:18:06.173Z,12.00
2023-01-07T18:23:10.951Z,12.10
2023-01-07T18:28:14.553Z,12.10
2023-01-07T18:33:16.608Z,12.10
2023-01-07T18:38:18.765Z,12.10
2023-01-07T18:43:22.657Z,12.00
2023-01-07T18:48:24.801Z,11.90
2023-01-07T18:53:27.885Z,11.80
2023-01-07T18:58:31.498Z,11.70
2023-01-07T19:03:33.718Z,11.50
2023-01-07T19:08:35.924Z,11.40
2023-01-07T19:13:39.469Z,11.30
2023-01-07T19:18:41.686Z,11.20
2023-01-07T19:23:43.855Z,11.20
2023-01-07T19:28:47.959Z,11.30
2023-01-07T19:33:50.206Z,11.30
2023-01-07T19:38:52.375Z,11.40
2023-01-07T19:44:00.362Z,11.50
2023-01-07T19:49:02.662Z,11.50
2023-01-07T19:54:05.312Z,11.50
2023-01-07T19:59:09.191Z,11.60
2023-01-07T20:04:11.319Z,11.60
2023-01-07T20:09:13.568Z,11.60
2023-01-07T20:14:17.332Z,11.50
2023-01-07T20:19:19.489Z,11.50
2023-01-07T20:24:25.957Z,11.40
2023-01-07T20:29:29.663Z,11.30
2023-01-07T20:34:31.803Z,11.40
2023-01-07T20:39:33.985Z,11.40
2023-01-07T20:44:37.551Z,11.50
2023-01-07T20:49:39.822Z,11.50
2023-01-07T20:54:41.927Z,11.60
2023-01-07T20:59:46.655Z,11.60
2023-01-07T21:04:48.836Z,11.70
2023-01-07T21:09:50.916Z,11.70
2023-01-07T21:14:54.472Z,11.70
2023-01-07T21:19:56.606Z,11.80
2023-01-07T21:24:58.701Z,11.80
2023-01-07T21:30:06.595Z,11.90
2023-01-07T21:35:09.977Z,11.80
2023-01-07T21:40:12.180Z,11.90
2023-01-07T21:45:17.380Z,11.90
2023-01-07T21:50:20.927Z,12.00
2023-01-07T21:55:23.025Z,11.90
2023-01-07T22:00:26.484Z,11.90
2023-01-07T22:05:28.644Z,12.00
2023-01-07T22:10:30.735Z,12.00
2023-01-07T22:15:34.251Z,12.00
2023-01-07T22:20:36.363Z,12.10
2023-01-07T22:25:38.531Z,12.10
2023-01-07T22:30:45.111Z,12.10
2023-01-07T22:35:47.309Z,12.10
2023-01-07T22:40:49.718Z,12.20
2023-01-07T22:45:57.260Z,12.20
2023-01-07T22:51:05.172Z,12.20
2023-01-07T22:56:07.846Z,12.20
2023-01-07T23:01:14.217Z,12.20
2023-01-07T23:06:16.639Z,12.20
2023-01-07T23:11:18.730Z,12.20
2023-01-07T23:16:22.329Z,12.20
2023-01-07T23:21:24.527Z,12.30
2023-01-07T23:26:26.614Z,12.30
2023-01-07T23:31:30.544Z,12.30
2023-01-07T23:36:32.900Z,12.30
2023-01-07T23:41:35.515Z,12.40
2023-01-07T23:46:39.167Z,12.40
2023-01-07T23:51:44.349Z,12.40
2023-01-07T23:56:46.468Z,12.50
